sensor_id;sensor_type;location;lat;lon;timestamp;pressure;altitude;pressure_sealevel;temperature;humidity
74218;BME280;62579;47.288;18.646;2022-12-10T00:01:24;98351.56;;;6.57;100.00
74218;BME280;62579;47.288;18.646;2022-12-10T00:03:50;98357.47;;;6.55;100.00
74218;BME280;62579;47.288;18.646;2022-12-10T00:06:19;98365.38;;;6.53;100.00
74218;BME280;62579;47.288;18.646;2022-12-10T00:08:44;98364.84;;;6.55;100.00
74218;BME280;62579;47.288;18.646;2022-12-10T00:41:26;98399.66;;;6.94;100.00
74218;BME280;62579;47.288;18.646;2022-12-10T00:43:52;98412.91;;;6.97;100.00
74218;BME280;62579;47.288;18.646;2022-12-10T00:46:18;98412.47;;;6.93;100.00
74218;BME280;62579;47.288;18.646;2022-12-10T00:48:43;98417.63;;;6.91;100.00
74218;BME280;62579;47.288;18.646;2022-12-10T00:51:13;98421.00;;;6.97;100.00
74218;BME280;62579;47.288;18.646;2022-12-10T00:53:40;98419.09;;;6.92;100.00
74218;BME280;62579;47.288;18.646;2022-12-10T00:56:07;98423.28;;;6.93;100.00
74218;BME280;62579;47.288;18.646;2022-12-10T00:58:34;98428.69;;;6.93;100.00
74218;BME280;62579;47.288;18.646;2022-12-10T01:01:16;98423.94;;;6.99;100.00
74218;BME280;62579;47.288;18.646;2022-12-10T01:03:42;98435.00;;;7.01;100.00
74218;BME280;62579;47.288;18.646;2022-12-10T01:06:32;98437.47;;;6.99;100.00
74218;BME280;62579;47.288;18.646;2022-12-10T01:09:01;98452.59;;;7.13;100.00
74218;BME280;62579;47.288;18.646;2022-12-10T01:11:32;98454.16;;;7.03;100.00
74218;BME280;62579;47.288;18.646;2022-12-10T01:13:58;98443.38;;;6.98;100.00
74218;BME280;62579;47.288;18.646;2022-12-10T01:16:25;98446.84;;;6.98;100.00
74218;BME280;62579;47.288;18.646;2022-12-10T01:18:53;98444.91;;;6.93;100.00
74218;BME280;62579;47.288;18.646;2022-12-10T01:21:19;98440.25;;;6.94;100.00
74218;BME280;62579;47.288;18.646;2022-12-10T01:23:46;98436.78;;;6.93;99.81
74218;BME280;62579;47.288;18.646;2022-12-10T01:26:16;98437.00;;;6.95;99.66
74218;BME280;62579;47.288;18.646;2022-12-10T01:28:42;98443.75;;;6.83;100.00
74218;BME280;62579;47.288;18.646;2022-12-10T01:31:11;98446.22;;;6.81;100.00
74218;BME280;62579;47.288;18.646;2022-12-10T01:33:37;98447.97;;;6.79;100.00
74218;BME280;62579;47.288;18.646;2022-12-10T01:36:12;98447.69;;;6.82;100.00
74218;BME280;62579;47.288;18.646;2022-12-10T01:38:38;98453.84;;;6.83;100.00
74218;BME280;62579;47.288;18.646;2022-12-10T01:41:04;98452.31;;;6.87;100.00
74218;BME280;62579;47.288;18.646;2022-12-10T01:43:49;98456.00;;;6.90;100.00
74218;BME280;62579;47.288;18.646;2022-12-10T01:46:15;98466.59;;;6.88;100.00
74218;BME280;62579;47.288;18.646;2022-12-10T01:48:40;98464.09;;;6.90;100.00
74218;BME280;62579;47.288;18.646;2022-12-10T01:51:06;98452.78;;;6.91;99.63
74218;BME280;62579;47.288;18.646;2022-12-10T01:53:32;98466.41;;;6.80;100.00
74218;BME280;62579;47.288;18.646;2022-12-10T01:55:57;98472.56;;;6.75;99.91
74218;BME280;62579;47.288;18.646;2022-12-10T01:58:22;98476.44;;;6.85;99.43
74218;BME280;62579;47.288;18.646;2022-12-10T02:01:02;98478.41;;;6.85;99.31
74218;BME280;62579;47.288;18.646;2022-12-10T02:03:38;98475.78;;;6.74;100.00
74218;BME280;62579;47.288;18.646;2022-12-10T02:08:54;98481.19;;;6.74;99.62
74218;BME280;62579;47.288;18.646;2022-12-10T02:11:24;98469.00;;;6.61;99.72
74218;BME280;62579;47.288;18.646;2022-12-10T02:14:08;98465.31;;;6.59;99.62
74218;BME280;62579;47.288;18.646;2022-12-10T02:16:57;98465.53;;;6.67;99.52
74218;BME280;62579;47.288;18.646;2022-12-10T02:20:41;98467.03;;;6.56;99.47
74218;BME280;62579;47.288;18.646;2022-12-10T02:22:38;98472.97;;;6.55;99.49
74218;BME280;62579;47.288;18.646;2022-12-10T02:25:05;98472.00;;;6.52;99.09
74218;BME280;62579;47.288;18.646;2022-12-10T02:28:05;98473.78;;;6.44;99.15
74218;BME280;62579;47.288;18.646;2022-12-10T02:30:33;98474.56;;;6.34;99.25
74218;BME280;62579;47.288;18.646;2022-12-10T02:33:00;98478.97;;;6.37;98.64
74218;BME280;62579;47.288;18.646;2022-12-10T02:35:31;98468.44;;;6.33;98.82
74218;BME280;62579;47.288;18.646;2022-12-10T02:38:10;98475.56;;;6.31;98.49
74218;BME280;62579;47.288;18.646;2022-12-10T02:40:37;98485.19;;;6.26;98.83
74218;BME280;62579;47.288;18.646;2022-12-10T02:43:07;98481.72;;;6.26;98.76
74218;BME280;62579;47.288;18.646;2022-12-10T02:45:34;98489.47;;;6.05;99.59
74218;BME280;62579;47.288;18.646;2022-12-10T02:48:02;98479.13;;;6.03;99.45
74218;BME280;62579;47.288;18.646;2022-12-10T02:50:28;98484.75;;;6.05;99.08
74218;BME280;62579;47.288;18.646;2022-12-10T02:52:54;98480.88;;;6.01;99.41
74218;BME280;62579;47.288;18.646;2022-12-10T02:55:19;98485.75;;;6.02;99.32
74218;BME280;62579;47.288;18.646;2022-12-10T02:58:07;98485.81;;;5.91;99.57
74218;BME280;62579;47.288;18.646;2022-12-10T03:00:50;98490.72;;;5.87;99.17
74218;BME280;62579;47.288;18.646;2022-12-10T03:03:29;98494.19;;;5.88;97.99
74218;BME280;62579;47.288;18.646;2022-12-10T03:06:09;98492.22;;;5.77;98.35
74218;BME280;62579;47.288;18.646;2022-12-10T03:08:51;98492.69;;;5.76;98.40
74218;BME280;62579;47.288;18.646;2022-12-10T03:11:21;98498.87;;;5.65;98.99
74218;BME280;62579;47.288;18.646;2022-12-10T03:13:49;98496.91;;;5.66;98.25
74218;BME280;62579;47.288;18.646;2022-12-10T03:16:17;98497.19;;;5.57;98.40
74218;BME280;62579;47.288;18.646;2022-12-10T03:18:46;98491.81;;;5.51;98.60
74218;BME280;62579;47.288;18.646;2022-12-10T03:21:15;98494.00;;;5.41;99.44
74218;BME280;62579;47.288;18.646;2022-12-10T03:23:42;98496.25;;;5.37;99.55
74218;BME280;62579;47.288;18.646;2022-12-10T03:26:09;98499.41;;;5.41;99.24
74218;BME280;62579;47.288;18.646;2022-12-10T03:28:39;98497.44;;;5.42;98.96
74218;BME280;62579;47.288;18.646;2022-12-10T03:31:07;98490.56;;;5.41;99.08
74218;BME280;62579;47.288;18.646;2022-12-10T03:33:33;98498.19;;;5.37;99.66
74218;BME280;62579;47.288;18.646;2022-12-10T03:35:59;98506.78;;;5.30;99.76
74218;BME280;62579;47.288;18.646;2022-12-10T03:38:25;98509.25;;;5.22;100.00
74218;BME280;62579;47.288;18.646;2022-12-10T03:40:50;98517.84;;;5.26;100.00
74218;BME280;62579;47.288;18.646;2022-12-10T03:43:15;98519.78;;;5.09;100.00
74218;BME280;62579;47.288;18.646;2022-12-10T03:45:41;98528.13;;;5.11;100.00
74218;BME280;62579;47.288;18.646;2022-12-10T03:48:06;98511.47;;;5.02;100.00
74218;BME280;62579;47.288;18.646;2022-12-10T03:50:31;98515.63;;;5.03;100.00
74218;BME280;62579;47.288;18.646;2022-12-10T03:52:57;98523.22;;;5.04;100.00
74218;BME280;62579;47.288;18.646;2022-12-10T03:55:22;98525.91;;;4.93;100.00
74218;BME280;62579;47.288;18.646;2022-12-10T03:57:47;98522.97;;;4.97;100.00
74218;BME280;62579;47.288;18.646;2022-12-10T04:00:14;98533.03;;;5.07;100.00
74218;BME280;62579;47.288;18.646;2022-12-10T04:02:39;98536.72;;;5.10;100.00
74218;BME280;62579;47.288;18.646;2022-12-10T04:05:05;98543.81;;;5.13;100.00
74218;BME280;62579;47.288;18.646;2022-12-10T04:07:32;98551.41;;;5.03;100.00
74218;BME280;62579;47.288;18.646;2022-12-10T04:09:57;98542.56;;;5.14;100.00
74218;BME280;62579;47.288;18.646;2022-12-10T04:12:22;98553.84;;;5.01;100.00
74218;BME280;62579;47.288;18.646;2022-12-10T04:14:48;98551.16;;;5.01;100.00
74218;BME280;62579;47.288;18.646;2022-12-10T04:17:32;98551.41;;;5.03;100.00
74218;BME280;62579;47.288;18.646;2022-12-10T04:20:01;98560.97;;;4.99;100.00
74218;BME280;62579;47.288;18.646;2022-12-10T04:22:26;98566.88;;;5.03;100.00
74218;BME280;62579;47.288;18.646;2022-12-10T04:25:11;98552.41;;;4.95;100.00
74218;BME280;62579;47.288;18.646;2022-12-10T04:27:55;98549.44;;;4.93;100.00
74218;BME280;62579;47.288;18.646;2022-12-10T04:30:21;98549.44;;;4.98;100.00
74218;BME280;62579;47.288;18.646;2022-12-10T04:32:46;98530.31;;;4.91;100.00
74218;BME280;62579;47.288;18.646;2022-12-10T04:35:11;98535.72;;;4.91;100.00
74218;BME280;62579;47.288;18.646;2022-12-10T04:37:37;98541.09;;;4.91;100.00
74218;BME280;62579;47.288;18.646;2022-12-10T04:40:03;98539.63;;;4.78;100.00
74218;BME280;62579;47.288;18.646;2022-12-10T04:42:29;98531.78;;;4.80;100.00
74218;BME280;62579;47.288;18.646;2022-12-10T04:44:54;98535.69;;;4.79;100.00
74218;BME280;62579;47.288;18.646;2022-12-10T04:47:20;98537.19;;;4.92;100.00
74218;BME280;62579;47.288;18.646;2022-12-10T04:49:45;98547.00;;;4.95;100.00
74218;BME280;62579;47.288;18.646;2022-12-10T04:52:12;98557.78;;;4.95;100.00
74218;BME280;62579;47.288;18.646;2022-12-10T04:54:39;98549.16;;;4.79;100.00
74218;BME280;62579;47.288;18.646;2022-12-10T04:57:06;98549.41;;;4.87;100.00
74218;BME280;62579;47.288;18.646;2022-12-10T04:59:32;98558.75;;;4.92;100.00
74218;BME280;62579;47.288;18.646;2022-12-10T05:01:57;98559.22;;;4.90;100.00
74218;BME280;62579;47.288;18.646;2022-12-10T05:04:23;98566.84;;;4.92;100.00
74218;BME280;62579;47.288;18.646;2022-12-10T05:06:48;98563.16;;;4.89;100.00
74218;BME280;62579;47.288;18.646;2022-12-10T05:09:14;98579.81;;;4.93;100.00
74218;BME280;62579;47.288;18.646;2022-12-10T05:11:40;98572.25;;;4.97;100.00
74218;BME280;62579;47.288;18.646;2022-12-10T05:14:06;98578.09;;;4.96;100.00
74218;BME280;62579;47.288;18.646;2022-12-10T05:16:33;98581.53;;;4.91;100.00
74218;BME280;62579;47.288;18.646;2022-12-10T05:18:59;98577.13;;;4.87;100.00
74218;BME280;62579;47.288;18.646;2022-12-10T05:21:27;98571.72;;;4.82;100.00
74218;BME280;62579;47.288;18.646;2022-12-10T05:24:11;98576.37;;;4.87;100.00
74218;BME280;62579;47.288;18.646;2022-12-10T05:26:37;98572.69;;;4.79;100.00
74218;BME280;62579;47.288;18.646;2022-12-10T05:29:02;98573.19;;;4.83;99.69
74218;BME280;62579;47.288;18.646;2022-12-10T05:31:29;98566.81;;;4.75;99.67
74218;BME280;62579;47.288;18.646;2022-12-10T05:33:56;98558.00;;;4.85;99.49
74218;BME280;62579;47.288;18.646;2022-12-10T05:36:23;98551.13;;;4.79;99.60
74218;BME280;62579;47.288;18.646;2022-12-10T05:38:50;98548.69;;;4.70;99.92
74218;BME280;62579;47.288;18.646;2022-12-10T05:41:18;98564.84;;;4.70;100.00
74218;BME280;62579;47.288;18.646;2022-12-10T05:43:44;98564.59;;;4.73;99.79
74218;BME280;62579;47.288;18.646;2022-12-10T05:46:13;98573.94;;;4.78;99.66
74218;BME280;62579;47.288;18.646;2022-12-10T05:48:38;98578.31;;;4.64;100.00
74218;BME280;62579;47.288;18.646;2022-12-10T05:51:06;98586.16;;;4.73;100.00
74218;BME280;62579;47.288;18.646;2022-12-10T05:53:31;98586.16;;;4.73;100.00
74218;BME280;62579;47.288;18.646;2022-12-10T05:56:02;98578.78;;;4.68;100.00
74218;BME280;62579;47.288;18.646;2022-12-10T05:58:28;98584.19;;;4.68;100.00
74218;BME280;62579;47.288;18.646;2022-12-10T06:00:55;98584.19;;;4.68;99.96
74218;BME280;62579;47.288;18.646;2022-12-10T06:03:20;98583.19;;;4.66;99.99
74218;BME280;62579;47.288;18.646;2022-12-10T06:05:45;98585.59;;;4.53;100.00
74218;BME280;62579;47.288;18.646;2022-12-10T06:08:10;98586.84;;;4.52;100.00
74218;BME280;62579;47.288;18.646;2022-12-10T06:10:36;98583.44;;;4.57;99.80
74218;BME280;62579;47.288;18.646;2022-12-10T06:13:02;98583.41;;;4.51;99.56
74218;BME280;62579;47.288;18.646;2022-12-10T06:15:28;98582.66;;;4.45;99.68
74218;BME280;62579;47.288;18.646;2022-12-10T06:17:54;98594.12;;;4.40;99.51
74218;BME280;62579;47.288;18.646;2022-12-10T06:20:20;98602.72;;;4.50;99.25
74218;BME280;62579;47.288;18.646;2022-12-10T06:22:46;98599.78;;;4.48;99.31
74218;BME280;62579;47.288;18.646;2022-12-10T06:25:11;98605.44;;;4.50;99.20
74218;BME280;62579;47.288;18.646;2022-12-10T06:27:36;98626.25;;;4.49;99.29
74218;BME280;62579;47.288;18.646;2022-12-10T06:30:02;98629.41;;;4.42;97.77
74218;BME280;62579;47.288;18.646;2022-12-10T06:32:27;98624.00;;;4.42;98.01
74218;BME280;62579;47.288;18.646;2022-12-10T06:34:53;98627.66;;;4.34;97.11
74218;BME280;62579;47.288;18.646;2022-12-10T06:37:18;98624.16;;;4.16;96.00
74218;BME280;62579;47.288;18.646;2022-12-10T06:39:43;98625.84;;;4.14;95.84
74218;BME280;62579;47.288;18.646;2022-12-10T06:42:09;98618.72;;;4.11;95.63
74218;BME280;62579;47.288;18.646;2022-12-10T06:44:34;98614.81;;;4.12;95.93
74218;BME280;62579;47.288;18.646;2022-12-10T06:46:59;98604.72;;;4.01;95.79
74218;BME280;62579;47.288;18.646;2022-12-10T06:49:25;98607.41;;;4.01;95.91
74218;BME280;62579;47.288;18.646;2022-12-10T06:51:50;98595.19;;;4.00;95.61
74218;BME280;62579;47.288;18.646;2022-12-10T06:54:15;98588.31;;;3.99;95.70
74218;BME280;62579;47.288;18.646;2022-12-10T06:56:41;98592.53;;;4.06;95.54
74218;BME280;62579;47.288;18.646;2022-12-10T06:59:06;98585.66;;;4.05;95.53
74218;BME280;62579;47.288;18.646;2022-12-10T07:01:32;98586.84;;;3.98;95.65
74218;BME280;62579;47.288;18.646;2022-12-10T07:03:57;98589.03;;;3.94;96.10
74218;BME280;62579;47.288;18.646;2022-12-10T07:06:24;98576.09;;;4.04;95.64
74218;BME280;62579;47.288;18.646;2022-12-10T07:08:50;98580.03;;;4.03;95.71
74218;BME280;62579;47.288;18.646;2022-12-10T07:11:18;98571.97;;;4.08;95.30
74218;BME280;62579;47.288;18.646;2022-12-10T07:13:46;98570.53;;;4.13;95.19
74218;BME280;62579;47.288;18.646;2022-12-10T07:16:31;98580.78;;;4.14;94.70
74218;BME280;62579;47.288;18.646;2022-12-10T07:19:00;98582.06;;;4.19;94.92
74218;BME280;62579;47.288;18.646;2022-12-10T07:21:29;98587.88;;;4.12;94.93
74218;BME280;62579;47.288;18.646;2022-12-10T07:23:56;98597.94;;;4.11;95.33
74218;BME280;62579;47.288;18.646;2022-12-10T07:26:24;98593.53;;;4.14;95.19
74218;BME280;62579;47.288;18.646;2022-12-10T07:28:50;98589.88;;;4.22;94.99
74218;BME280;62579;47.288;18.646;2022-12-10T07:31:15;98595.00;;;4.15;94.97
74218;BME280;62579;47.288;18.646;2022-12-10T07:33:40;98603.03;;;4.09;94.59
74218;BME280;62579;47.288;18.646;2022-12-10T07:36:10;98625.06;;;4.08;94.49
74218;BME280;62579;47.288;18.646;2022-12-10T07:38:37;98641.16;;;3.97;94.88
74218;BME280;62579;47.288;18.646;2022-12-10T07:41:08;98648.97;;;3.95;95.42
74218;BME280;62579;47.288;18.646;2022-12-10T07:43:35;98652.47;;;4.06;94.31
74218;BME280;62579;47.288;18.646;2022-12-10T07:46:05;98649.47;;;3.99;94.85
74218;BME280;62579;47.288;18.646;2022-12-10T07:48:31;98642.28;;;3.85;95.68
74218;BME280;62579;47.288;18.646;2022-12-10T07:50:58;98635.50;;;3.89;96.20
74218;BME280;62579;47.288;18.646;2022-12-10T07:53:23;98621.16;;;4.03;95.41
74218;BME280;62579;47.288;18.646;2022-12-10T07:55:50;98624.81;;;4.06;95.10
74218;BME280;62579;47.288;18.646;2022-12-10T07:58:15;98614.25;;;3.97;94.88
74218;BME280;62579;47.288;18.646;2022-12-10T08:00:40;98607.19;;;4.05;94.43
74218;BME280;62579;47.288;18.646;2022-12-10T08:03:06;98604.47;;;3.99;94.34
74218;BME280;62579;47.288;18.646;2022-12-10T08:05:31;98605.91;;;3.95;94.57
74218;BME280;62579;47.288;18.646;2022-12-10T08:07:56;98606.13;;;3.91;94.17
74218;BME280;62579;47.288;18.646;2022-12-10T08:10:21;98594.84;;;3.82;94.80
74218;BME280;62579;47.288;18.646;2022-12-10T08:12:47;98589.69;;;3.84;95.16
74218;BME280;62579;47.288;18.646;2022-12-10T08:15:12;98586.75;;;3.82;95.57
74218;BME280;62579;47.288;18.646;2022-12-10T08:17:37;98578.44;;;3.85;95.04
74218;BME280;62579;47.288;18.646;2022-12-10T08:20:03;98592.63;;;3.86;95.55
74218;BME280;62579;47.288;18.646;2022-12-10T08:22:28;98593.84;;;3.79;96.12
74218;BME280;62579;47.288;18.646;2022-12-10T08:24:54;98599.00;;;3.88;95.90
74218;BME280;62579;47.288;18.646;2022-12-10T08:27:19;98610.28;;;3.87;95.96
74218;BME280;62579;47.288;18.646;2022-12-10T08:29:44;98603.97;;;3.95;95.86
74218;BME280;62579;47.288;18.646;2022-12-10T08:32:09;98605.94;;;4.00;95.66
74218;BME280;62579;47.288;18.646;2022-12-10T08:34:35;98614.41;;;3.88;96.31
74218;BME280;62579;47.288;18.646;2022-12-10T08:37:00;98618.69;;;4.05;94.83
74218;BME280;62579;47.288;18.646;2022-12-10T08:39:25;98629.87;;;3.93;95.78
74218;BME280;62579;47.288;18.646;2022-12-10T08:41:51;98636.19;;;3.84;95.87
74218;BME280;62579;47.288;18.646;2022-12-10T08:44:16;98628.19;;;4.01;95.16
74218;BME280;62579;47.288;18.646;2022-12-10T08:46:41;98620.13;;;4.01;94.41
74218;BME280;62579;47.288;18.646;2022-12-10T08:49:07;98619.66;;;4.02;94.26
74218;BME280;62579;47.288;18.646;2022-12-10T08:51:32;98632.91;;;4.06;94.57
74218;BME280;62579;47.288;18.646;2022-12-10T08:53:58;98651.41;;;3.93;94.74
74218;BME280;62579;47.288;18.646;2022-12-10T08:56:23;98662.06;;;4.13;94.35
74218;BME280;62579;47.288;18.646;2022-12-10T08:58:48;98668.19;;;4.13;93.40
74218;BME280;62579;47.288;18.646;2022-12-10T09:01:16;98672.97;;;3.98;94.16
74218;BME280;62579;47.288;18.646;2022-12-10T09:03:42;98679.88;;;4.05;94.25
74218;BME280;62579;47.288;18.646;2022-12-10T09:06:10;98677.16;;;3.99;93.98
74218;BME280;62579;47.288;18.646;2022-12-10T09:08:36;98676.03;;;3.80;94.59
74218;BME280;62579;47.288;18.646;2022-12-10T09:11:11;98675.56;;;3.82;94.40
74218;BME280;62579;47.288;18.646;2022-12-10T09:13:37;98669.19;;;3.85;94.79
74218;BME280;62579;47.288;18.646;2022-12-10T09:16:03;98665.56;;;3.88;94.77
74218;BME280;62579;47.288;18.646;2022-12-10T09:18:28;98659.25;;;3.96;95.14
74218;BME280;62579;47.288;18.646;2022-12-10T09:20:53;98651.78;;;4.11;93.30
74218;BME280;62579;47.288;18.646;2022-12-10T09:23:19;98642.69;;;4.09;93.62
74218;BME280;62579;47.288;18.646;2022-12-10T09:25:44;98627.25;;;4.04;93.71
74218;BME280;62579;47.288;18.646;2022-12-10T09:28:09;98618.03;;;4.16;93.39
74218;BME280;62579;47.288;18.646;2022-12-10T09:30:35;98615.13;;;4.19;93.22
74218;BME280;62579;47.288;18.646;2022-12-10T09:33:00;98602.59;;;4.11;93.47
74218;BME280;62579;47.288;18.646;2022-12-10T09:35:25;98594.75;;;4.13;93.82
74218;BME280;62579;47.288;18.646;2022-12-10T09:37:51;98588.91;;;4.20;93.68
74218;BME280;62579;47.288;18.646;2022-12-10T09:40:18;98586.19;;;4.14;92.83
74218;BME280;62579;47.288;18.646;2022-12-10T09:43:12;98580.59;;;4.23;93.29
74218;BME280;62579;47.288;18.646;2022-12-10T09:45:58;98574.75;;;4.31;93.01
74218;BME280;62579;47.288;18.646;2022-12-10T09:51:09;98579.38;;;4.19;93.68
74218;BME280;62579;47.288;18.646;2022-12-10T09:53:36;98582.09;;;4.30;92.62
74218;BME280;62579;47.288;18.646;2022-12-10T09:56:03;98579.16;;;4.34;92.58
74218;BME280;62579;47.288;18.646;2022-12-10T09:58:29;98584.03;;;4.24;93.12
74218;BME280;62579;47.288;18.646;2022-12-10T10:01:00;98585.78;;;4.33;93.18
74218;BME280;62579;47.288;18.646;2022-12-10T10:03:26;98582.81;;;4.31;93.63
74218;BME280;62579;47.288;18.646;2022-12-10T10:05:56;98584.03;;;4.24;93.72
74218;BME280;62579;47.288;18.646;2022-12-10T10:08:29;98576.94;;;4.27;94.03
74218;BME280;62579;47.288;18.646;2022-12-10T10:10:59;98576.69;;;4.19;93.38
74218;BME280;62579;47.288;18.646;2022-12-10T10:16:23;98580.88;;;4.31;91.87
74218;BME280;62579;47.288;18.646;2022-12-10T10:18:59;98598.22;;;4.19;92.19
74218;BME280;62579;47.288;18.646;2022-12-10T10:21:42;98595.53;;;4.19;92.10
74218;BME280;62579;47.288;18.646;2022-12-10T10:24:14;98584.78;;;4.24;92.16
74218;BME280;62579;47.288;18.646;2022-12-10T10:26:40;98586.28;;;4.37;92.05
74218;BME280;62579;47.288;18.646;2022-12-10T10:29:08;98580.41;;;4.33;91.85
74218;BME280;62579;47.288;18.646;2022-12-10T10:31:36;98593.88;;;4.33;92.08
74218;BME280;62579;47.288;18.646;2022-12-10T10:34:05;98597.28;;;4.33;92.42
74218;BME280;62579;47.288;18.646;2022-12-10T10:36:35;98587.25;;;4.34;92.60
74218;BME280;62579;47.288;18.646;2022-12-10T10:39:27;98579.66;;;4.32;92.32
74218;BME280;62579;47.288;18.646;2022-12-10T10:41:56;98585.03;;;4.27;92.28
74218;BME280;62579;47.288;18.646;2022-12-10T10:44:24;98574.41;;;4.12;93.28
74218;BME280;62579;47.288;18.646;2022-12-10T10:46:51;98573.03;;;4.33;93.00
74218;BME280;62579;47.288;18.646;2022-12-10T10:49:24;98572.78;;;4.31;92.93
74218;BME280;62579;47.288;18.646;2022-12-10T10:51:51;98562.03;;;4.31;93.45
74218;BME280;62579;47.288;18.646;2022-12-10T10:57:04;98563.50;;;4.32;92.98
74218;BME280;62579;47.288;18.646;2022-12-10T10:59:35;98562.50;;;4.24;93.43
74218;BME280;62579;47.288;18.646;2022-12-10T11:02:17;98564.19;;;4.16;93.96
74218;BME280;62579;47.288;18.646;2022-12-10T11:04:47;98557.56;;;4.17;93.67
74218;BME280;62579;47.288;18.646;2022-12-10T11:07:20;98550.97;;;4.23;93.97
74218;BME280;62579;47.288;18.646;2022-12-10T11:09:48;98545.56;;;4.18;94.21
74218;BME280;62579;47.288;18.646;2022-12-10T11:14:58;98553.44;;;4.27;93.74
74218;BME280;62579;47.288;18.646;2022-12-10T11:17:25;98538.97;;;4.19;93.86
74218;BME280;62579;47.288;18.646;2022-12-10T11:22:35;98520.34;;;4.15;94.00
74218;BME280;62579;47.288;18.646;2022-12-10T11:25:01;98520.59;;;4.12;94.52
74218;BME280;62579;47.288;18.646;2022-12-10T11:30:17;98513.75;;;4.11;94.47
74218;BME280;62579;47.288;18.646;2022-12-10T11:33:19;98500.75;;;4.09;94.50
74218;BME280;62579;47.288;18.646;2022-12-10T11:41:39;98483.59;;;4.07;94.83
74218;BME280;62579;47.288;18.646;2022-12-10T11:44:47;98482.19;;;4.11;94.91
74218;BME280;62579;47.288;18.646;2022-12-10T11:50:25;98465.25;;;4.05;95.18
74218;BME280;62579;47.288;18.646;2022-12-10T11:55:43;98465.97;;;4.00;95.23
74218;BME280;62579;47.288;18.646;2022-12-10T12:09:38;98465.00;;;3.98;96.47
74218;BME280;62579;47.288;18.646;2022-12-10T12:14:48;98463.22;;;3.84;96.24
74218;BME280;62579;47.288;18.646;2022-12-10T12:17:32;98454.69;;;3.91;96.39
74218;BME280;62579;47.288;18.646;2022-12-10T12:22:42;98449.53;;;3.82;96.65
74218;BME280;62579;47.288;18.646;2022-12-10T12:28:12;98445.56;;;3.77;96.89
74218;BME280;62579;47.288;18.646;2022-12-10T12:30:41;98442.62;;;3.70;97.60
74218;BME280;62579;47.288;18.646;2022-12-10T12:33:14;98441.91;;;3.80;97.46
74218;BME280;62579;47.288;18.646;2022-12-10T12:35:49;98444.84;;;3.77;97.34
74218;BME280;62579;47.288;18.646;2022-12-10T12:38:31;98442.41;;;3.73;97.52
74218;BME280;62579;47.288;18.646;2022-12-10T12:43:38;98458.53;;;3.73;96.90
74218;BME280;62579;47.288;18.646;2022-12-10T12:46:12;98458.81;;;3.81;96.19
74218;BME280;62579;47.288;18.646;2022-12-10T12:48:48;98466.63;;;3.79;96.61
74218;BME280;62579;47.288;18.646;2022-12-10T12:51:27;98473.69;;;3.71;96.73
74218;BME280;62579;47.288;18.646;2022-12-10T12:53:54;98468.75;;;3.63;97.07
74218;BME280;62579;47.288;18.646;2022-12-10T12:59:52;98478.09;;;3.74;96.26
74218;BME280;62579;47.288;18.646;2022-12-10T13:02:56;98482.91;;;3.58;97.00
74218;BME280;62579;47.288;18.646;2022-12-10T13:05:31;98484.78;;;3.41;97.71
74218;BME280;62579;47.288;18.646;2022-12-10T13:11:01;98476.56;;;3.61;97.60
74218;BME280;62579;47.288;18.646;2022-12-10T13:25:15;98466.34;;;3.66;97.70
74218;BME280;62579;47.288;18.646;2022-12-10T13:27:42;98462.16;;;3.64;97.33
74218;BME280;62579;47.288;18.646;2022-12-10T13:30:25;98463.38;;;3.63;97.27
74218;BME280;62579;47.288;18.646;2022-12-10T13:33:00;98458.97;;;3.66;97.52
74218;BME280;62579;47.288;18.646;2022-12-10T13:35:31;98456.56;;;3.68;97.60
74218;BME280;62579;47.288;18.646;2022-12-10T13:38:15;98449.66;;;3.56;97.88
74218;BME280;62579;47.288;18.646;2022-12-10T13:40:43;98447.25;;;3.69;98.52
74218;BME280;62579;47.288;18.646;2022-12-10T13:48:46;98440.13;;;3.55;97.53
74218;BME280;62579;47.288;18.646;2022-12-10T13:51:20;98429.59;;;3.51;97.60
74218;BME280;62579;47.288;18.646;2022-12-10T13:54:25;98428.38;;;3.58;97.83
74218;BME280;62579;47.288;18.646;2022-12-10T13:59:51;98449.88;;;3.58;98.04
74218;BME280;62579;47.288;18.646;2022-12-10T14:08:00;98458.44;;;3.56;97.97
74218;BME280;62579;47.288;18.646;2022-12-10T14:10:31;98457.94;;;3.52;98.20
74218;BME280;62579;47.288;18.646;2022-12-10T14:12:58;98453.03;;;3.51;98.64
74218;BME280;62579;47.288;18.646;2022-12-10T14:15:25;98454.72;;;3.43;98.40
74218;BME280;62579;47.288;18.646;2022-12-10T14:18:00;98449.13;;;3.46;98.79
74218;BME280;62579;47.288;18.646;2022-12-10T14:20:29;98454.78;;;3.54;98.90
74218;BME280;62579;47.288;18.646;2022-12-10T14:22:55;98456.50;;;3.57;98.37
74218;BME280;62579;47.288;18.646;2022-12-10T14:25:45;98455.75;;;3.56;98.51
74218;BME280;62579;47.288;18.646;2022-12-10T14:28:13;98458.00;;;3.63;98.03
74218;BME280;62579;47.288;18.646;2022-12-10T14:30:44;98448.41;;;3.51;98.24
74218;BME280;62579;47.288;18.646;2022-12-10T14:33:12;98450.12;;;3.54;98.12
74218;BME280;62579;47.288;18.646;2022-12-10T14:35:40;98448.19;;;3.60;97.58
74218;BME280;62579;47.288;18.646;2022-12-10T14:38:06;98459.22;;;3.62;97.73
74218;BME280;62579;47.288;18.646;2022-12-10T14:40:41;98455.00;;;3.50;98.76
74218;BME280;62579;47.288;18.646;2022-12-10T14:43:37;98446.00;;;3.59;98.56
74218;BME280;62579;47.288;18.646;2022-12-10T14:46:04;98448.88;;;3.50;98.54
74218;BME280;62579;47.288;18.646;2022-12-10T14:48:30;98441.78;;;3.52;98.51
74218;BME280;62579;47.288;18.646;2022-12-10T14:51:12;98453.31;;;3.58;98.58
74218;BME280;62579;47.288;18.646;2022-12-10T14:53:39;98446.94;;;3.56;98.75
74218;BME280;62579;47.288;18.646;2022-12-10T14:56:05;98439.59;;;3.51;98.76
74218;BME280;62579;47.288;18.646;2022-12-10T14:58:40;98437.13;;;3.47;99.21
74218;BME280;62579;47.288;18.646;2022-12-10T15:01:06;98441.50;;;3.45;98.87
74218;BME280;62579;47.288;18.646;2022-12-10T15:03:39;98443.56;;;3.61;98.51
74218;BME280;62579;47.288;18.646;2022-12-10T15:06:09;98436.91;;;3.51;98.74